AirNav   Everest Fuels
 
 449 users online  

2II5 Burns International Harbor Heliport
Portage, Indiana, USA

GOING TO PORTAGE?


FAA INFORMATION EFFECTIVE 22 APRIL 2021

Location

FAA Identifier: 2II5
Lat/Long: 41-38-13.1330N 087-09-08.1250W
41-38.218883N 087-09.135417W
41.6369814,-87.1522569
(estimated)
Elevation: 596 ft. / 182 m (estimated)
Variation: 02W (1985)
From city: 5 miles SW of PORTAGE, IN
Time zone: UTC -5 (UTC -6 during Standard Time)
Zip code: 46368

Heliport Operations

Heliport use: Private use. Permission required prior to landing
Activation date: 08/1982
Control tower: no
ARTCC: CHICAGO CENTER
FSS: TERRE HAUTE FLIGHT SERVICE STATION
Attendance: MON-FRI 0800-1700
Wind indicator: yes
Segmented circle: no

Heliport Communications

WX AWOS-3PT at GYY (12 nm W): 134.575 (219-944-0010)
WX ASOS at VPZ (13 nm SE): 125.875 (219-531-1770)
WX AWOS-3 at MGC (15 nm E): 128.450 (219-878-1106)
WX AWOS-3 at IGQ (18 nm W): 119.275 (708-895-9526)
WX AWOS-3 at PPO (19 nm E): 119.825 (219-326-6916)

Nearby radio navigation aids

VOR radial/distance  VOR name  Freq  Var
CGTr066/20.3CHICAGO HEIGHTS VORTAC114.2002E
OXIr310/29.5KNOX VOR/DME115.6000E
EONr051/36.2PEOTONE VORTAC113.2002E
GIJr258/38.2GIPPER VORTAC115.4000E

Heliport Services

Runway Information

Helipad H1

Dimensions: 150 x 100 ft. / 46 x 30 m
Surface: concrete
Latitude: 41-38.218883N
Longitude: 087-09.135417W
Elevation: 596.0 ft.
Traffic pattern: leftleft

Heliport Ownership and Management from official FAA records

Ownership: Publicly-owned
Owner: PORTS OF INDIANA
6625 BOUNDARY RD
PORTAGE, IN 46368
Phone 219-787-8636
Manager: PETER E. MCCARTHY
6625 BOUNDARY RD
PORTAGE, IN 46368
Phone 219-787-8636

Additional Remarks

FOR CD CTC CHICAGO APCH AT 847-289-0926.
(CONTACT TITLE) ADDITIONAL CONTACT NIKOLAS SYZMAREK 219-787-8636 NSYZMAREK@PORTSOFINDIANA.COM

Instrument Procedures

There are no published instrument procedures at 2II5.

Some nearby airports with instrument procedures:

3HO - Hobart Sky Ranch Airport (7 nm SW)
KGYY - Gary/Chicago International Airport (12 nm W)
KVPZ - Porter County Regional Airport (13 nm SE)
05C - Griffith-Merrillville Airport (13 nm SW)
KMGC - Michigan City Municipal Airport-Phillips Field (15 nm E)
KIGQ - Lansing Municipal Airport (18 nm W)
KPPO - La Porte Municipal Airport (19 nm E)
 
Loc | Ops | Rwys | IFR | FBO | Links
Com | Nav | Svcs | Stats | Notes
Area around 2II5 (Burns International Harbor Heliport)
 
Road maps at: MapQuest Bing Google
 
Aerial photo
No photo
 
Sectional chart

 
Airport distance calculator
Flying to Burns International Harbor Heliport? Find the distance to fly.

From to 2II5

Sunrise and sunset
Times for 09-May-2021
 Local
(UTC-5)
 Zulu
(UTC)
Morning civil twilight05:0510:05
Sunrise05:3610:36
Sunset19:5400:54
Evening civil twilight20:2501:25

Current date and time
Zulu (UTC)  09-May-2021 06:28:46
Local (UTC-5)  09-May-2021 01:28:46
 
METAR
KGYY 
12nm W 
090615Z AUTO 13003KT 4SM RA OVC030 03/03 A3006 RMK AO2 P0002 T00320025
KVPZ 
13nm SE 
090621Z AUTO 10004KT 5SM RA BR OVC030 02/01 A3005 RMK AO2 P0007 T00220006
KMGC 
15nm E 
090615Z AUTO 19006KT 10SM -RA OVC045 03/02 A3005 RMK AO2
KIGQ 
18nm W 
090615Z AUTO 11005KT 5SM RA OVC032 03/03 A3005 RMK AO2 P0003 T00270027
KPPO 
19nm E 
090615Z AUTO 19005KT 5SM -RA SCT022 OVC028 03/02 A3005 RMK AO2 P0001 T00270022
TAF
KGYY 
12nm W 
090530Z 0906/1006 10011KT 3SM RA BR SCT007 OVC020 TEMPO 0908/0912 1 1/2SM RASN BR OVC007 FM091200 06019G29KT 3SM RA BR OVC007 FM091800 01015G25KT P6SM BKN012 FM092200 01014G24KT P6SM BKN040 FM100100 01011KT P6SM SCT050
NOTAMs
Click for the latest NOTAMs
NOTAMs are issued by the DoD/FAA and will open in a separate window not controlled by AirNav.

 

 
 

Would you like to see your business listed on this page?

 If your business provides an interesting product or service to pilots, flight crews, aircraft, or users of the Burns International Harbor Heliport, you should consider listing it here.  To start the listing process, click on the button below
 
Add a business
 

Other Pages about Burns International Harbor Heliport

Update a link
 
Copyright © AirNav, LLC. All rights reserved. Privacy Policy  Contact